This is the latest recevied weather packets stored in our database for station/object F1JRN-13. If no packets are shown the sender has not sent any weather packets the latest 10 day(s).
| Time | Temp. | Humidity | Pressure | Rain* | Wind** | Luminosity | Snow |
|---|---|---|---|---|---|---|---|
| 1777623432 | 18.89° C | 78% | 1014.6 hPa | 0 mm | - | - | - |
| 1777618032 | 13.33° C | 94% | 1014.1 hPa | 0 mm | - | - | - |
| 1777584579 | 15° C | 82% | 1014.6 hPa | 0 mm | - | - | - |
| 1777573433 | 16.11° C | 76% | 1014.1 hPa | 0 mm | - | - | - |
| 1777500820 | 16.67° C | 64% | 1006.7 hPa | 0 mm | - | - | - |
| 1777500280 | 17.22° C | 65% | 1006.6 hPa | 0 mm | - | - | - |
| 1777499740 | 17.22° C | 65% | 1006.6 hPa | 0 mm | - | - | - |
| 1777497580 | 18.33° C | 63% | 1006.2 hPa | 0 mm | - | - | - |
| 1777497040 | 18.33° C | 63% | 1006.4 hPa | 0 mm | - | - | - |
| 1777496500 | 18.33° C | 63% | 1006.4 hPa | 0 mm | - | - | - |
| 1777491100 | 19.44° C | 61% | 1005.6 hPa | 0 mm | - | - | - |
| 1777489480 | 19.44° C | 61% | 1005.2 hPa | 0 mm | - | - | - |
| 1777486780 | 20.56° C | 59% | 1004.9 hPa | 0 mm | - | - | - |
| 1777484080 | 21.67° C | 56% | 1004.9 hPa | 0 mm | - | - | - |
| 1777479220 | 23.33° C | 48% | 1004.6 hPa | 0 mm | - | - | - |
| 1777476520 | 25° C | 45% | 1004.4 hPa | 0 mm | - | - | - |
| 1777475441 | 25° C | 44% | 1004.5 hPa | 0 mm | - | - | - |
| 1777471661 | 26.67° C | 46% | 1004.3 hPa | 0 mm | - | - | - |
| 1777469500 | 25° C | 50% | 1004.6 hPa | 0 mm | - | - | - |
| 1777468420 | 23.89° C | 49% | 1004.6 hPa | 0 mm | - | - | - |
| 1777461400 | 22.78° C | 51% | 1004.3 hPa | 0 mm | - | - | - |
| 1777460321 | 22.22° C | 55% | 1004.3 hPa | 0 mm | - | - | - |
| 1777457621 | 22.22° C | 53% | 1004.7 hPa | 0 mm | - | - | - |
| 1777453301 | 20° C | 61% | 1004.8 hPa | 0 mm | - | - | - |
| 1777445201 | 16.11° C | 79% | 1004.7 hPa | 0 mm | - | - | - |
* Rain latest hour (hover to see other rain measurements)
** Current wind speed in m/s (hover to see current wind gust speed)